Time;durP1;ratioP1;P1;durP2;ratioP2;P2;SDS_P1;SDS_P2;PMS_P1;PMS_P2;Temp;Humidity;BMP_temperature;BMP_pressure;BME280_temperature;BME280_humidity;BME280_pressure;Samples;Min_cycle;Max_cycle;Signal;HPM_P1;HPM_P2
2021/11/03 00:00:14;;;;;;;53.75;31.15;;;;;;;;;;4836732;29;20533;-77
2021/11/03 00:02:41;;;;;;;59.60;31.90;;;;;;;;;;4833613;29;20065;-75
2021/11/03 00:05:09;;;;;;;54.33;29.88;;;;;;;;;;4834829;29;20049;-74
2021/11/03 00:07:35;;;;;;;61.00;30.15;;;;;;;;;;4834663;29;20724;-75
2021/11/03 00:10:04;;;;;;;58.13;30.23;;;;;;;;;;4835569;29;20140;-78
2021/11/03 00:12:31;;;;;;;57.03;31.70;;;;;;;;;;4833988;29;20034;-75
2021/11/03 00:14:58;;;;;;;55.28;30.08;;;;;;;;;;4829801;29;20042;-76
2021/11/03 00:17:26;;;;;;;54.90;29.88;;;;;;;;;;4834965;29;20069;-75
2021/11/03 00:19:51;;;;;;;53.10;30.08;;;;;;;;;;4835432;29;20034;-75
2021/11/03 00:22:18;;;;;;;58.67;30.92;;;;;;;;;;4835107;29;20054;-75
2021/11/03 00:24:44;;;;;;;53.30;29.45;;;;;;;;;;4835472;29;20288;-76
2021/11/03 00:27:11;;;;;;;49.33;28.08;;;;;;;;;;4845394;29;20038;-75
2021/11/03 00:29:37;;;;;;;52.78;28.17;;;;;;;;;;4835176;29;20345;-77
2021/11/03 00:32:04;;;;;;;47.35;28.17;;;;;;;;;;4834820;29;20142;-76
2021/11/03 00:34:30;;;;;;;48.15;28.27;;;;;;;;;;4850767;29;20064;-76
2021/11/03 00:36:56;;;;;;;50.78;26.67;;;;;;;;;;4833958;29;20041;-77
2021/11/03 00:39:22;;;;;;;49.17;28.58;;;;;;;;;;4834546;29;20030;-76
2021/11/03 00:41:49;;;;;;;47.53;27.30;;;;;;;;;;4823114;29;20038;-76
2021/11/03 00:44:15;;;;;;;51.67;29.85;;;;;;;;;;4825456;29;20522;-77
2021/11/03 00:46:41;;;;;;;49.83;27.98;;;;;;;;;;4825386;29;20042;-78
2021/11/03 00:49:07;;;;;;;44.72;27.17;;;;;;;;;;4836103;29;20045;-77
2021/11/03 00:51:35;;;;;;;50.90;28.52;;;;;;;;;;4841094;29;20498;-76
2021/11/03 00:54:01;;;;;;;44.83;27.60;;;;;;;;;;4834867;29;20631;-77
2021/11/03 00:56:28;;;;;;;45.97;26.02;;;;;;;;;;4834619;29;20268;-78
2021/11/03 00:58:53;;;;;;;46.22;24.48;;;;;;;;;;4834972;29;20159;-76
2021/11/03 01:01:19;;;;;;;48.40;26.33;;;;;;;;;;4851076;29;20042;-75
2021/11/03 01:03:46;;;;;;;46.58;27.08;;;;;;;;;;4851722;29;20380;-77
2021/11/03 01:06:13;;;;;;;45.15;26.10;;;;;;;;;;4851270;29;20034;-75
2021/11/03 01:08:38;;;;;;;46.75;26.83;;;;;;;;;;4835828;29;20038;-76
2021/11/03 01:11:04;;;;;;;45.00;25.17;;;;;;;;;;4854762;29;20049;-76
2021/11/03 01:13:30;;;;;;;44.20;26.55;;;;;;;;;;4855053;29;20041;-75
2021/11/03 01:15:58;;;;;;;45.60;25.15;;;;;;;;;;4837786;29;20030;-77
2021/11/03 01:18:30;;;;;;;45.10;25.08;;;;;;;;;;4839360;29;20030;-77
2021/11/03 01:20:59;;;;;;;41.22;23.92;;;;;;;;;;4840298;29;20038;-77
2021/11/03 01:23:26;;;;;;;45.55;24.40;;;;;;;;;;4837890;29;20049;-76
2021/11/03 01:25:53;;;;;;;42.47;25.05;;;;;;;;;;4838187;29;20329;-76
2021/11/03 01:28:20;;;;;;;45.00;24.75;;;;;;;;;;4837448;29;20410;-76
2021/11/03 01:30:46;;;;;;;43.08;23.98;;;;;;;;;;4837915;29;20042;-76
2021/11/03 01:33:15;;;;;;;40.15;23.83;;;;;;;;;;4843626;29;20033;-76
2021/11/03 01:35:41;;;;;;;39.55;23.55;;;;;;;;;;4837428;29;20065;-76
2021/11/03 01:38:07;;;;;;;41.92;23.77;;;;;;;;;;4837672;29;20041;-76
2021/11/03 01:40:39;;;;;;;38.35;22.33;;;;;;;;;;4837915;29;20040;-77
2021/11/03 01:43:06;;;;;;;37.38;22.02;;;;;;;;;;4837745;29;20038;-76
2021/11/03 01:45:33;;;;;;;34.38;21.85;;;;;;;;;;4837702;29;20050;-77
2021/11/03 01:48:02;;;;;;;41.38;22.95;;;;;;;;;;4835875;29;20102;-78
2021/11/03 01:50:30;;;;;;;40.20;23.08;;;;;;;;;;4837880;29;20128;-76
2021/11/03 01:53:08;;;;;;;43.30;23.45;;;;;;;;;;4837323;29;20084;-77
2021/11/03 01:55:38;;;;;;;38.40;22.08;;;;;;;;;;4837815;29;20120;-75
2021/11/03 01:58:12;;;;;;;40.22;22.25;;;;;;;;;;4837818;29;20038;-77
2021/11/03 02:00:42;;;;;;;35.38;21.40;;;;;;;;;;4836622;29;20140;-77
2021/11/03 02:03:15;;;;;;;40.83;22.73;;;;;;;;;;4837317;29;20033;-78
2021/11/03 02:05:47;;;;;;;36.95;21.63;;;;;;;;;;4838385;29;20368;-76
2021/11/03 02:08:14;;;;;;;38.95;21.63;;;;;;;;;;4837892;29;20042;-76
2021/11/03 02:10:40;;;;;;;39.33;21.55;;;;;;;;;;4837730;29;20074;-76
2021/11/03 02:13:11;;;;;;;35.03;20.65;;;;;;;;;;4837575;29;20086;-78
2021/11/03 02:15:38;;;;;;;40.20;21.10;;;;;;;;;;4837142;29;20140;-76
2021/11/03 02:18:06;;;;;;;35.47;20.90;;;;;;;;;;4837379;29;20038;-76
2021/11/03 02:20:31;;;;;;;39.67;21.50;;;;;;;;;;4837025;29;20042;-77
2021/11/03 02:23:03;;;;;;;38.35;22.38;;;;;;;;;;4853569;29;20040;-79
2021/11/03 02:25:35;;;;;;;37.65;21.83;;;;;;;;;;4838198;29;20037;-77
2021/11/03 02:28:03;;;;;;;38.47;20.67;;;;;;;;;;4827293;29;20139;-78
2021/11/03 02:30:29;;;;;;;38.60;21.55;;;;;;;;;;4837717;29;20145;-78
2021/11/03 02:33:02;;;;;;;37.63;21.15;;;;;;;;;;4857593;29;20495;-78
2021/11/03 02:35:28;;;;;;;42.45;22.42;;;;;;;;;;4837541;29;20091;-77
2021/11/03 02:37:56;;;;;;;42.00;21.83;;;;;;;;;;4838267;29;20094;-77
2021/11/03 02:40:40;;;;;;;43.97;22.08;;;;;;;;;;4854818;29;20038;-77
2021/11/03 02:43:40;;;;;;;39.28;21.83;;;;;;;;;;4837137;29;20041;-76
2021/11/03 02:46:06;;;;;;;41.75;22.13;;;;;;;;;;4833842;29;20086;-77
2021/11/03 02:48:36;;;;;;;47.08;22.50;;;;;;;;;;4837611;29;20094;-77
2021/11/03 02:51:09;;;;;;;50.47;23.00;;;;;;;;;;4853461;29;20957;-77
2021/11/03 02:53:43;;;;;;;45.40;23.85;;;;;;;;;;4854143;29;20045;-78
2021/11/03 02:56:09;;;;;;;45.63;23.25;;;;;;;;;;4835979;29;20406;-77
2021/11/03 02:58:36;;;;;;;43.80;22.80;;;;;;;;;;4852846;29;20102;-77
2021/11/03 03:01:11;;;;;;;44.67;23.60;;;;;;;;;;4836983;29;20410;-78
2021/11/03 03:03:37;;;;;;;40.72;21.80;;;;;;;;;;4854102;29;20034;-77
2021/11/03 03:06:09;;;;;;;42.47;23.10;;;;;;;;;;4836885;29;20475;-76
2021/11/03 03:08:34;;;;;;;42.00;22.10;;;;;;;;;;4837915;29;20037;-77
2021/11/03 03:11:03;;;;;;;44.30;22.23;;;;;;;;;;4836994;29;20130;-77
2021/11/03 03:13:30;;;;;;;42.92;22.92;;;;;;;;;;4837525;29;20499;-77
2021/11/03 03:15:56;;;;;;;45.63;23.33;;;;;;;;;;4836697;29;20053;-77
2021/11/03 03:18:22;;;;;;;39.03;21.08;;;;;;;;;;4852663;29;20041;-78
2021/11/03 03:20:48;;;;;;;43.42;22.65;;;;;;;;;;4836590;29;20064;-78
2021/11/03 03:23:14;;;;;;;45.65;22.98;;;;;;;;;;4853412;29;20038;-77
2021/11/03 03:25:40;;;;;;;40.13;22.80;;;;;;;;;;4837150;29;20041;-78
2021/11/03 03:28:06;;;;;;;44.28;22.38;;;;;;;;;;4836882;29;20041;-78
2021/11/03 03:30:32;;;;;;;40.42;22.42;;;;;;;;;;4851847;29;20123;-78
2021/11/03 03:33:00;;;;;;;43.78;22.20;;;;;;;;;;4851678;29;20030;-78
2021/11/03 03:35:25;;;;;;;40.08;21.35;;;;;;;;;;4836775;29;20037;-78
2021/11/03 03:37:55;;;;;;;41.67;20.92;;;;;;;;;;4835453;29;20034;-77
2021/11/03 03:40:21;;;;;;;40.10;20.17;;;;;;;;;;4836491;29;20036;-77
2021/11/03 03:42:48;;;;;;;36.53;20.45;;;;;;;;;;4836452;29;20132;-79
2021/11/03 03:45:15;;;;;;;39.03;20.55;;;;;;;;;;4853484;29;20117;-77
2021/11/03 03:47:41;;;;;;;40.35;20.42;;;;;;;;;;4836781;29;20049;-78
2021/11/03 03:50:11;;;;;;;34.67;18.67;;;;;;;;;;4852150;29;20106;-78
2021/11/03 03:52:39;;;;;;;38.78;19.95;;;;;;;;;;4835988;29;20034;-76
2021/11/03 03:55:07;;;;;;;39.80;19.83;;;;;;;;;;4834140;29;20037;-77
2021/11/03 03:57:33;;;;;;;36.10;18.98;;;;;;;;;;4836063;29;20037;-77
2021/11/03 03:59:59;;;;;;;35.90;19.83;;;;;;;;;;4852649;29;20048;-78
2021/11/03 04:02:27;;;;;;;40.92;20.08;;;;;;;;;;4836474;29;20045;-78
2021/11/03 04:04:53;;;;;;;37.08;19.60;;;;;;;;;;4836270;29;20105;-78
2021/11/03 04:07:19;;;;;;;36.92;20.60;;;;;;;;;;4852445;29;20026;-77
2021/11/03 04:09:44;;;;;;;40.60;20.92;;;;;;;;;;4836180;29;20030;-77
2021/11/03 04:12:10;;;;;;;36.90;20.23;;;;;;;;;;4852788;29;20050;-76
2021/11/03 04:14:36;;;;;;;40.72;20.67;;;;;;;;;;4836121;29;20034;-76
2021/11/03 04:17:02;;;;;;;36.95;19.67;;;;;;;;;;4853040;29;20080;-77
2021/11/03 04:19:28;;;;;;;36.65;20.13;;;;;;;;;;4851811;29;20042;-76
2021/11/03 04:21:57;;;;;;;43.92;22.40;;;;;;;;;;4835568;29;20640;-77
2021/11/03 04:24:23;;;;;;;41.65;20.80;;;;;;;;;;4835649;29;20030;-76
2021/11/03 04:26:49;;;;;;;44.55;21.27;;;;;;;;;;4835674;29;20495;-77
2021/11/03 04:29:17;;;;;;;39.38;21.30;;;;;;;;;;4835554;29;20132;-77
2021/11/03 04:31:43;;;;;;;42.10;21.77;;;;;;;;;;4836577;29;20484;-78
2021/11/03 04:34:09;;;;;;;47.28;23.25;;;;;;;;;;4836185;29;20038;-78
2021/11/03 04:36:36;;;;;;;42.95;23.30;;;;;;;;;;4836165;29;20597;-77
2021/11/03 04:39:05;;;;;;;47.00;22.48;;;;;;;;;;4835949;29;20052;-78
2021/11/03 04:41:31;;;;;;;42.85;22.33;;;;;;;;;;4835554;29;20038;-78
2021/11/03 04:43:56;;;;;;;41.03;21.40;;;;;;;;;;4837615;29;20037;-78
2021/11/03 04:46:22;;;;;;;43.10;22.77;;;;;;;;;;4838350;29;20081;-78
2021/11/03 04:48:49;;;;;;;46.38;22.85;;;;;;;;;;4839058;29;20034;-77
2021/11/03 04:51:15;;;;;;;45.65;24.15;;;;;;;;;;4838835;29;20041;-76
2021/11/03 04:53:41;;;;;;;45.08;22.35;;;;;;;;;;4839067;29;20034;-78
2021/11/03 04:56:08;;;;;;;43.95;20.90;;;;;;;;;;4838356;29;20560;-76
2021/11/03 04:58:34;;;;;;;51.95;23.30;;;;;;;;;;4839338;29;20053;-76
2021/11/03 05:01:01;;;;;;;47.00;22.80;;;;;;;;;;4838149;29;20034;-77
2021/11/03 05:03:27;;;;;;;50.33;23.33;;;;;;;;;;4838652;29;20036;-77
2021/11/03 05:05:55;;;;;;;48.30;23.63;;;;;;;;;;4838904;29;20046;-76
2021/11/03 05:08:21;;;;;;;45.15;21.75;;;;;;;;;;4837247;29;20125;-77
2021/11/03 05:10:47;;;;;;;54.55;23.48;;;;;;;;;;4831694;29;20408;-76
2021/11/03 05:13:13;;;;;;;47.15;21.33;;;;;;;;;;4838851;29;20166;-76
2021/11/03 05:15:38;;;;;;;41.15;21.55;;;;;;;;;;4854528;29;20178;-75
2021/11/03 05:18:05;;;;;;;45.65;21.23;;;;;;;;;;4837584;29;20491;-76
2021/11/03 05:20:30;;;;;;;38.72;20.30;;;;;;;;;;4837659;29;20053;-76
2021/11/03 05:22:56;;;;;;;41.33;21.02;;;;;;;;;;4837452;29;20099;-75
2021/11/03 05:25:25;;;;;;;42.42;21.55;;;;;;;;;;4838620;29;20090;-75
2021/11/03 05:27:52;;;;;;;39.05;19.48;;;;;;;;;;4854428;29;20058;-77
2021/11/03 05:30:21;;;;;;;38.90;19.95;;;;;;;;;;4837619;29;20053;-77
2021/11/03 05:32:47;;;;;;;40.22;20.08;;;;;;;;;;4838214;29;20044;-77
2021/11/03 05:35:14;;;;;;;37.45;19.30;;;;;;;;;;4837521;29;20058;-76
2021/11/03 05:37:39;;;;;;;41.97;19.80;;;;;;;;;;4854340;29;20041;-76
2021/11/03 05:40:09;;;;;;;38.30;19.23;;;;;;;;;;4838193;29;20041;-76
2021/11/03 05:42:35;;;;;;;40.08;19.20;;;;;;;;;;4837860;29;20141;-76
2021/11/03 05:45:00;;;;;;;38.65;20.02;;;;;;;;;;4854886;29;20038;-76
2021/11/03 05:47:28;;;;;;;35.78;19.13;;;;;;;;;;4854875;29;20030;-76
2021/11/03 05:49:56;;;;;;;37.78;19.33;;;;;;;;;;4838221;29;20042;-77
2021/11/03 05:52:22;;;;;;;41.58;19.55;;;;;;;;;;4837421;29;20090;-76
2021/11/03 05:54:48;;;;;;;40.45;19.17;;;;;;;;;;4837448;29;20038;-77
2021/11/03 05:57:21;;;;;;;36.00;19.27;;;;;;;;;;4837857;29;20138;-76
2021/11/03 05:59:49;;;;;;;;;;;;;;;;;;4855239;29;20049;-76
2021/11/03 06:02:14;;;;;;;38.17;18.10;;;;;;;;;;4837801;29;19920;-76
2021/11/03 06:04:45;;;;;;;41.17;19.25;;;;;;;;;;4854437;29;20125;-77
2021/11/03 06:07:12;;;;;;;36.13;18.80;;;;;;;;;;4838225;29;20050;-76
2021/11/03 06:09:39;;;;;;;32.95;18.55;;;;;;;;;;4855020;29;20133;-76
2021/11/03 06:12:05;;;;;;;37.63;19.13;;;;;;;;;;4839078;29;20030;-76
2021/11/03 06:14:31;;;;;;;35.95;18.20;;;;;;;;;;4837915;29;20033;-78
2021/11/03 06:16:57;;;;;;;38.17;20.08;;;;;;;;;;4839785;29;20064;-77
2021/11/03 06:19:26;;;;;;;37.05;18.00;;;;;;;;;;4839110;29;20336;-76
2021/11/03 06:21:53;;;;;;;35.50;18.20;;;;;;;;;;4838219;29;20163;-77
2021/11/03 06:24:21;;;;;;;29.52;17.52;;;;;;;;;;4838962;29;20212;-76
2021/11/03 06:26:46;;;;;;;30.65;16.48;;;;;;;;;;4839144;29;20038;-77
2021/11/03 06:29:12;;;;;;;31.17;17.45;;;;;;;;;;4855122;29;20060;-78
2021/11/03 06:31:38;;;;;;;31.38;17.77;;;;;;;;;;4838349;29;20037;-76
2021/11/03 06:34:12;;;;;;;32.58;18.25;;;;;;;;;;4839325;29;20034;-76
2021/11/03 06:36:37;;;;;;;;;;;;;;;;;;4840308;29;20042;-78
2021/11/03 06:39:08;;;;;;;28.77;16.15;;;;;;;;;;4839539;29;19916;-76
2021/11/03 06:41:36;;;;;;;27.65;15.35;;;;;;;;;;4839682;29;20034;-76
2021/11/03 06:44:02;;;;;;;27.85;15.60;;;;;;;;;;4839442;29;20040;-76
2021/11/03 06:46:28;;;;;;;28.15;15.35;;;;;;;;;;4846635;29;20507;-76
2021/11/03 06:48:54;;;;;;;30.20;15.93;;;;;;;;;;4839368;29;20054;-76
2021/11/03 06:51:20;;;;;;;28.30;15.05;;;;;;;;;;4838994;29;20121;-76
2021/11/03 06:53:45;;;;;;;27.85;15.25;;;;;;;;;;4838935;29;20046;-78
2021/11/03 06:56:11;;;;;;;25.15;15.07;;;;;;;;;;4855626;29;20042;-77
2021/11/03 06:58:43;;;;;;;30.55;16.15;;;;;;;;;;4855599;29;20038;-77
2021/11/03 07:01:09;;;;;;;25.33;16.30;;;;;;;;;;4855307;29;20042;-77
2021/11/03 07:03:37;;;;;;;28.50;16.20;;;;;;;;;;4843138;29;20033;-78
2021/11/03 07:06:06;;;;;;;31.50;16.65;;;;;;;;;;4837797;29;20062;-78
2021/11/03 07:08:36;;;;;;;26.75;15.50;;;;;;;;;;4838837;29;20038;-76
2021/11/03 07:11:02;;;;;;;24.90;15.73;;;;;;;;;;4854983;29;20034;-77
2021/11/03 07:13:29;;;;;;;28.75;15.40;;;;;;;;;;4838445;29;20040;-77
2021/11/03 07:15:55;;;;;;;26.90;15.13;;;;;;;;;;4838873;29;20030;-77
2021/11/03 07:18:30;;;;;;;24.30;14.57;;;;;;;;;;4838271;29;20042;-77
2021/11/03 07:20:56;;;;;;;23.08;14.27;;;;;;;;;;4837373;29;20034;-77
2021/11/03 07:23:24;;;;;;;21.40;13.63;;;;;;;;;;4837792;29;20116;-77
2021/11/03 07:25:49;;;;;;;26.83;13.95;;;;;;;;;;4854280;29;20038;-77
2021/11/03 07:28:18;;;;;;;21.60;13.70;;;;;;;;;;4837402;29;20056;-77
2021/11/03 07:30:44;;;;;;;20.95;12.70;;;;;;;;;;4838618;29;20034;-77
2021/11/03 07:33:24;;;;;;;17.08;12.15;;;;;;;;;;4839035;29;20042;-76
2021/11/03 07:35:49;;;;;;;15.80;12.10;;;;;;;;;;4838858;29;20034;-77
2021/11/03 07:38:17;;;;;;;17.08;11.73;;;;;;;;;;4838716;29;20038;-76
2021/11/03 07:40:48;;;;;;;16.80;11.52;;;;;;;;;;4838700;29;20104;-76
2021/11/03 07:43:23;;;;;;;14.93;11.13;;;;;;;;;;4837513;29;20069;-76
2021/11/03 07:45:51;;;;;;;14.75;10.55;;;;;;;;;;4838049;29;20038;-76
2021/11/03 07:48:18;;;;;;;12.77;9.68;;;;;;;;;;4837777;29;20065;-76
2021/11/03 07:50:47;;;;;;;13.00;9.32;;;;;;;;;;4838126;29;20044;-76
2021/11/03 07:53:19;;;;;;;15.50;10.10;;;;;;;;;;4837566;29;20041;-76
2021/11/03 07:55:48;;;;;;;13.18;9.23;;;;;;;;;;4837166;29;20033;-76
2021/11/03 07:58:23;;;;;;;11.05;9.50;;;;;;;;;;4837355;29;20034;-77
2021/11/03 08:00:50;;;;;;;12.05;9.45;;;;;;;;;;4836825;29;20038;-76
2021/11/03 08:03:18;;;;;;;12.13;8.95;;;;;;;;;;4853752;29;20093;-76
2021/11/03 08:05:44;;;;;;;11.82;8.93;;;;;;;;;;4836918;29;20034;-76
2021/11/03 08:08:18;;;;;;;10.95;8.43;;;;;;;;;;4836375;29;20037;-76
2021/11/03 08:10:45;;;;;;;10.55;8.52;;;;;;;;;;4836890;29;20040;-76
2021/11/03 08:13:17;;;;;;;12.98;9.00;;;;;;;;;;4836741;29;20184;-77
2021/11/03 08:15:48;;;;;;;10.52;8.50;;;;;;;;;;4836766;29;20034;-77
2021/11/03 08:18:17;;;;;;;12.40;8.60;;;;;;;;;;4837050;29;20131;-77
2021/11/03 08:20:44;;;;;;;10.38;8.70;;;;;;;;;;4837042;29;20033;-76
2021/11/03 08:23:11;;;;;;;12.13;9.40;;;;;;;;;;4837121;29;20146;-76
2021/11/03 08:25:36;;;;;;;10.55;8.23;;;;;;;;;;4853237;29;20045;-76
2021/11/03 08:28:05;;;;;;;12.52;8.95;;;;;;;;;;4836666;29;20079;-76
2021/11/03 08:30:31;;;;;;;11.35;8.48;;;;;;;;;;4836981;29;20034;-76
2021/11/03 08:33:03;;;;;;;11.82;8.80;;;;;;;;;;4837295;29;20510;-76
2021/11/03 08:35:29;;;;;;;10.85;8.60;;;;;;;;;;4853101;29;20113;-76
2021/11/03 08:38:03;;;;;;;11.23;9.05;;;;;;;;;;4837251;29;20041;-76
2021/11/03 08:40:34;;;;;;;11.50;9.07;;;;;;;;;;4836973;29;20105;-76
2021/11/03 08:43:03;;;;;;;10.93;8.18;;;;;;;;;;4836533;29;20140;-76
2021/11/03 08:45:29;;;;;;;10.63;8.13;;;;;;;;;;4852780;29;20041;-76
2021/11/03 08:47:58;;;;;;;11.05;8.70;;;;;;;;;;4836848;29;20034;-76
2021/11/03 08:50:28;;;;;;;11.85;8.23;;;;;;;;;;4837009;29;20067;-76
2021/11/03 08:52:55;;;;;;;10.75;7.40;;;;;;;;;;4836743;29;20462;-76
2021/11/03 08:55:22;;;;;;;10.35;7.35;;;;;;;;;;4836753;29;20037;-76
2021/11/03 08:57:49;;;;;;;10.55;7.60;;;;;;;;;;4836884;29;20143;-76
2021/11/03 09:00:21;;;;;;;11.73;7.20;;;;;;;;;;4836528;29;20033;-76
2021/11/03 09:02:49;;;;;;;10.60;7.75;;;;;;;;;;4836472;29;20057;-76
2021/11/03 09:05:15;;;;;;;9.43;6.82;;;;;;;;;;4836835;29;20038;-76
2021/11/03 09:07:42;;;;;;;10.02;6.53;;;;;;;;;;4836702;29;20057;-76
2021/11/03 09:10:17;;;;;;;11.23;6.90;;;;;;;;;;4853144;29;20061;-76
2021/11/03 09:12:44;;;;;;;10.43;7.13;;;;;;;;;;4821367;29;20076;-76
2021/11/03 09:15:11;;;;;;;12.43;7.47;;;;;;;;;;4836616;29;20120;-76
2021/11/03 09:17:37;;;;;;;10.27;7.68;;;;;;;;;;4837180;29;20479;-76
2021/11/03 09:20:06;;;;;;;12.05;8.00;;;;;;;;;;4836847;29;20034;-76
2021/11/03 09:22:34;;;;;;;13.52;8.18;;;;;;;;;;4836734;29;20034;-76
2021/11/03 09:24:59;;;;;;;14.77;8.57;;;;;;;;;;4836439;29;20094;-76
2021/11/03 09:27:25;;;;;;;13.88;7.25;;;;;;;;;;4836508;29;20483;-77
2021/11/03 09:29:51;;;;;;;10.23;6.50;;;;;;;;;;4837743;29;20085;-75
2021/11/03 09:32:21;;;;;;;8.23;5.05;;;;;;;;;;4839528;29;20037;-75
2021/11/03 09:34:49;;;;;;;9.32;5.32;;;;;;;;;;4839826;29;20060;-75
2021/11/03 09:37:17;;;;;;;6.78;4.80;;;;;;;;;;4855430;29;20033;-74
2021/11/03 09:39:49;;;;;;;7.60;5.25;;;;;;;;;;4855847;29;20050;-76
2021/11/03 09:42:19;;;;;;;6.65;4.68;;;;;;;;;;4839454;29;20045;-76
2021/11/03 09:44:47;;;;;;;6.72;3.88;;;;;;;;;;4838957;29;20071;-76
2021/11/03 09:47:14;;;;;;;4.40;3.50;;;;;;;;;;4855834;29;20057;-75
2021/11/03 09:49:58;;;;;;;4.88;3.20;;;;;;;;;;4839211;29;20045;-76
2021/11/03 09:52:34;;;;;;;6.55;3.28;;;;;;;;;;4839262;29;20036;-75
2021/11/03 09:55:14;;;;;;;5.00;3.22;;;;;;;;;;4838943;29;20034;-75
2021/11/03 09:57:55;;;;;;;2.83;1.90;;;;;;;;;;4839418;29;20034;-77
2021/11/03 10:00:49;;;;;;;3.65;2.50;;;;;;;;;;4839092;29;20038;-75
2021/11/03 10:03:30;;;;;;;4.20;3.03;;;;;;;;;;4838676;29;20034;-75
2021/11/03 10:06:07;;;;;;;7.00;2.97;;;;;;;;;;4855659;29;20117;-77
2021/11/03 10:08:49;;;;;;;8.73;3.47;;;;;;;;;;4839121;29;20102;-75
2021/11/03 10:11:26;;;;;;;6.18;3.40;;;;;;;;;;4839016;29;20154;-76
2021/11/03 10:13:55;;;;;;;5.53;3.05;;;;;;;;;;4855353;29;20068;-76
2021/11/03 10:16:20;;;;;;;5.45;3.67;;;;;;;;;;4838795;29;20033;-76
2021/11/03 10:18:56;;;;;;;5.15;3.13;;;;;;;;;;4838688;29;20038;-75
2021/11/03 10:21:22;;;;;;;3.47;2.42;;;;;;;;;;4838978;29;20468;-76
2021/11/03 10:24:01;;;;;;;6.30;3.30;;;;;;;;;;4838097;29;20044;-76
2021/11/03 10:26:31;;;;;;;4.72;2.95;;;;;;;;;;4854654;29;20163;-76
2021/11/03 10:29:32;;;;;;;7.05;3.10;;;;;;;;;;4837763;29;20373;-75
2021/11/03 10:32:24;;;;;;;5.55;3.58;;;;;;;;;;4828311;29;20034;-76
2021/11/03 10:35:21;;;;;;;5.18;3.38;;;;;;;;;;4837939;29;20030;-75
2021/11/03 10:37:58;;;;;;;5.68;3.20;;;;;;;;;;4837656;29;20034;-76
2021/11/03 10:40:30;;;;;;;5.63;3.38;;;;;;;;;;4837448;29;20115;-75
2021/11/03 10:43:01;;;;;;;4.82;2.80;;;;;;;;;;4837396;29;20141;-77
2021/11/03 10:45:33;;;;;;;6.13;3.20;;;;;;;;;;4836995;29;20034;-77
2021/11/03 10:48:08;;;;;;;4.22;3.03;;;;;;;;;;4853979;29;20034;-76
2021/11/03 10:50:40;;;;;;;5.18;2.70;;;;;;;;;;4837147;29;20492;-75
2021/11/03 10:53:23;;;;;;;4.20;2.75;;;;;;;;;;4853884;29;20030;-74
2021/11/03 10:56:09;;;;;;;4.60;2.40;;;;;;;;;;4837288;29;20030;-76
2021/11/03 10:58:57;;;;;;;5.13;2.70;;;;;;;;;;4837363;29;20125;-75
2021/11/03 11:01:22;;;;;;;3.42;2.20;;;;;;;;;;4837338;29;20034;-77
2021/11/03 11:03:54;;;;;;;2.95;2.15;;;;;;;;;;4837368;29;20045;-75
2021/11/03 11:06:27;;;;;;;3.63;2.40;;;;;;;;;;4837259;29;20030;-76
2021/11/03 11:09:28;;;;;;;3.38;2.03;;;;;;;;;;4837091;29;20042;-74
2021/11/03 11:11:58;;;;;;;3.08;2.35;;;;;;;;;;4834615;29;20038;-76
2021/11/03 11:14:29;;;;;;;5.47;2.65;;;;;;;;;;4854000;29;20057;-75
2021/11/03 11:17:05;;;;;;;5.10;2.70;;;;;;;;;;4837375;29;20053;-76
2021/11/03 11:19:55;;;;;;;5.78;2.67;;;;;;;;;;4837180;29;20033;-74
2021/11/03 11:22:34;;;;;;;4.38;2.97;;;;;;;;;;4836979;29;20040;-77
2021/11/03 11:25:03;;;;;;;5.13;2.95;;;;;;;;;;4836798;29;20412;-74
2021/11/03 11:27:34;;;;;;;6.55;3.10;;;;;;;;;;4836443;29;20149;-76
2021/11/03 11:30:16;;;;;;;5.55;2.97;;;;;;;;;;4836053;29;20137;-74
2021/11/03 11:33:09;;;;;;;4.47;2.60;;;;;;;;;;4836875;29;20041;-75
2021/11/03 11:35:44;;;;;;;4.70;2.45;;;;;;;;;;4852878;29;20033;-75
2021/11/03 11:38:50;;;;;;;4.35;2.42;;;;;;;;;;4835364;29;20130;-74
2021/11/03 11:41:30;;;;;;;3.65;2.67;;;;;;;;;;4852933;29;20050;-76
2021/11/03 11:44:10;;;;;;;4.32;2.90;;;;;;;;;;4836408;29;20068;-74
2021/11/03 11:46:37;;;;;;;6.45;3.20;;;;;;;;;;4836400;29;20117;-74
2021/11/03 11:49:17;;;;;;;3.70;3.03;;;;;;;;;;4836375;29;20034;-75
2021/11/03 11:51:49;;;;;;;4.78;3.10;;;;;;;;;;4835994;29;20041;-75
2021/11/03 11:54:17;;;;;;;4.18;3.17;;;;;;;;;;4836222;29;20030;-76
2021/11/03 11:56:43;;;;;;;5.22;2.90;;;;;;;;;;4852746;29;20089;-76
2021/11/03 11:59:09;;;;;;;4.10;3.08;;;;;;;;;;4852639;29;20034;-76
2021/11/03 12:01:46;;;;;;;3.70;2.95;;;;;;;;;;4852597;29;20041;-75
2021/11/03 12:04:30;;;;;;;4.82;3.42;;;;;;;;;;4836202;29;20030;-74
2021/11/03 12:06:56;;;;;;;5.80;2.63;;;;;;;;;;4836313;29;20057;-75
2021/11/03 12:09:56;;;;;;;4.55;2.92;;;;;;;;;;4836200;29;20037;-74
2021/11/03 12:12:23;;;;;;;4.75;3.03;;;;;;;;;;4835251;29;20034;-74
2021/11/03 12:14:55;;;;;;;4.47;2.90;;;;;;;;;;4835698;29;20085;-76
2021/11/03 12:17:40;;;;;;;5.80;3.13;;;;;;;;;;4835990;29;20065;-75
2021/11/03 12:20:24;;;;;;;3.38;2.50;;;;;;;;;;4836024;29;20042;-75
2021/11/03 12:22:51;;;;;;;4.30;2.67;;;;;;;;;;4836081;29;20030;-74
2021/11/03 12:25:17;;;;;;;3.30;2.53;;;;;;;;;;4835941;29;20095;-74
2021/11/03 12:27:46;;;;;;;4.32;2.60;;;;;;;;;;4835747;29;20034;-75
2021/11/03 12:30:15;;;;;;;3.17;1.95;;;;;;;;;;4835980;29;20042;-73
2021/11/03 12:32:40;;;;;;;4.43;1.70;;;;;;;;;;4835886;29;20046;-73
2021/11/03 12:35:18;;;;;;;3.67;1.60;;;;;;;;;;4835992;29;20222;-74
2021/11/03 12:37:52;;;;;;;2.70;1.48;;;;;;;;;;4835697;29;20034;-74
2021/11/03 12:40:35;;;;;;;3.33;1.42;;;;;;;;;;4852256;29;20045;-75
2021/11/03 12:43:03;;;;;;;2.75;1.50;;;;;;;;;;4835593;29;20038;-75
2021/11/03 12:45:49;;;;;;;3.17;1.65;;;;;;;;;;4835783;29;20042;-75
2021/11/03 12:48:21;;;;;;;2.13;1.30;;;;;;;;;;4852429;29;20045;-75
2021/11/03 12:50:47;;;;;;;1.75;1.17;;;;;;;;;;4835434;29;20531;-76
2021/11/03 12:53:25;;;;;;;1.77;1.27;;;;;;;;;;4851911;29;20090;-75
2021/11/03 12:56:13;;;;;;;2.70;1.40;;;;;;;;;;4835359;29;20026;-75
2021/11/03 12:58:53;;;;;;;1.83;1.20;;;;;;;;;;4851958;29;20036;-74
2021/11/03 13:01:49;;;;;;;3.40;1.10;;;;;;;;;;4835130;29;20064;-75
2021/11/03 13:04:23;;;;;;;3.58;1.40;;;;;;;;;;4827090;29;20560;-76
2021/11/03 13:06:55;;;;;;;;;;;;;;;;;;4839531;29;20033;-75
2021/11/03 13:10:08;;;;;;;2.20;1.15;;;;;;;;;;4855665;29;19923;-73
2021/11/03 13:12:36;;;;;;;3.58;1.00;;;;;;;;;;4830033;29;20057;-76
2021/11/03 13:15:20;;;;;;;3.67;1.17;;;;;;;;;;4838702;29;20038;-76
2021/11/03 13:17:52;;;;;;;1.67;1.20;;;;;;;;;;4838661;29;20037;-75
2021/11/03 13:20:30;;;;;;;3.00;1.20;;;;;;;;;;4855366;29;20502;-74
2021/11/03 13:22:57;;;;;;;1.98;1.10;;;;;;;;;;4838385;29;20034;-74
2021/11/03 13:25:36;;;;;;;1.50;0.95;;;;;;;;;;4838704;29;20038;-75
2021/11/03 13:28:01;;;;;;;1.05;0.90;;;;;;;;;;4838285;29;20551;-74
2021/11/03 13:30:31;;;;;;;2.05;1.00;;;;;;;;;;4838744;29;20037;-73
2021/11/03 13:33:22;;;;;;;2.47;1.20;;;;;;;;;;4838260;29;20515;-75
2021/11/03 13:36:01;;;;;;;2.47;1.00;;;;;;;;;;4855100;29;20038;-76
2021/11/03 13:38:30;;;;;;;1.20;0.93;;;;;;;;;;4855321;29;20062;-74
2021/11/03 13:40:58;;;;;;;1.75;0.88;;;;;;;;;;4838357;29;20495;-75
2021/11/03 13:43:24;;;;;;;1.50;0.80;;;;;;;;;;4838194;29;20042;-76
2021/11/03 13:45:49;;;;;;;1.15;0.80;;;;;;;;;;4838403;29;20332;-73
2021/11/03 13:48:20;;;;;;;1.42;0.90;;;;;;;;;;4838365;29;20041;-75
2021/11/03 13:50:49;;;;;;;1.98;1.00;;;;;;;;;;4838193;29;20041;-75
2021/11/03 13:53:15;;;;;;;1.95;1.00;;;;;;;;;;4838065;29;20126;-75
2021/11/03 13:55:45;;;;;;;2.13;1.20;;;;;;;;;;4854651;29;20057;-74
2021/11/03 13:58:25;;;;;;;1.38;0.80;;;;;;;;;;4854559;29;20041;-75
2021/11/03 14:00:59;;;;;;;2.20;0.90;;;;;;;;;;4837905;29;20034;-78
2021/11/03 14:03:43;;;;;;;1.17;0.98;;;;;;;;;;4838231;29;20034;-75
2021/11/03 14:06:29;;;;;;;;;;;;;;;;;;4854829;29;20030;-74
2021/11/03 14:09:19;;;;;;;3.85;1.10;;;;;;;;;;4841552;29;19935;-77
2021/11/03 14:11:47;;;;;;;3.53;1.00;;;;;;;;;;4837935;29;20049;-75
2021/11/03 14:14:15;;;;;;;1.67;1.10;;;;;;;;;;4838011;29;20034;-76
2021/11/03 14:16:56;;;;;;;1.88;1.02;;;;;;;;;;4837710;29;20038;-76
2021/11/03 14:19:49;;;;;;;2.47;1.10;;;;;;;;;;4838114;29;20498;-75
2021/11/03 14:22:18;;;;;;;3.63;1.00;;;;;;;;;;4822949;29;20070;-76
2021/11/03 14:24:44;;;;;;;2.15;1.05;;;;;;;;;;4837813;29;20034;-75
2021/11/03 14:27:11;;;;;;;1.48;0.90;;;;;;;;;;4838159;29;20050;-76
2021/11/03 14:29:37;;;;;;;1.50;0.90;;;;;;;;;;4854175;29;20510;-75
2021/11/03 14:32:04;;;;;;;1.38;0.90;;;;;;;;;;4854166;29;20048;-75
2021/11/03 14:34:32;;;;;;;1.85;0.90;;;;;;;;;;4837457;29;20068;-75
2021/11/03 14:36:58;;;;;;;1.85;1.00;;;;;;;;;;4837457;29;20051;-76
2021/11/03 14:39:31;;;;;;;2.50;1.00;;;;;;;;;;4837549;29;20121;-74
2021/11/03 14:41:58;;;;;;;2.60;1.17;;;;;;;;;;4854153;29;20105;-76
2021/11/03 14:44:26;;;;;;;1.08;0.90;;;;;;;;;;4837066;29;20097;-75
2021/11/03 14:46:56;;;;;;;2.40;0.98;;;;;;;;;;4835929;29;20025;-75